sensor_id;sensor_type;location;lat;lon;timestamp;P1;P2;P0
64627;PMS5003;68467;50.960;0.314;2024-03-22T00:02:01;29;27;
64627;PMS5003;68467;50.960;0.314;2024-03-22T00:04:30;24;24;
64627;PMS5003;68467;50.960;0.314;2024-03-22T00:06:58;26;24;
64627;PMS5003;68467;50.960;0.314;2024-03-22T00:09:26;24;23;
64627;PMS5003;68467;50.960;0.314;2024-03-22T00:11:54;25;23;
64627;PMS5003;68467;50.960;0.314;2024-03-22T00:14:21;27;24;
64627;PMS5003;68467;50.960;0.314;2024-03-22T00:16:49;24;23;
64627;PMS5003;68467;50.960;0.314;2024-03-22T00:19:16;25;24;
64627;PMS5003;68467;50.960;0.314;2024-03-22T00:21:44;22;20;
64627;PMS5003;68467;50.960;0.314;2024-03-22T00:24:11;26;23;
64627;PMS5003;68467;50.960;0.314;2024-03-22T00:26:38;26;24;
64627;PMS5003;68467;50.960;0.314;2024-03-22T00:29:07;25;24;
64627;PMS5003;68467;50.960;0.314;2024-03-22T00:31:35;24;22;
64627;PMS5003;68467;50.960;0.314;2024-03-22T00:34:02;24;23;
64627;PMS5003;68467;50.960;0.314;2024-03-22T00:36:29;22;22;
64627;PMS5003;68467;50.960;0.314;2024-03-22T00:38:56;22;22;
64627;PMS5003;68467;50.960;0.314;2024-03-22T00:41:23;23;22;
64627;PMS5003;68467;50.960;0.314;2024-03-22T00:43:50;23;22;
64627;PMS5003;68467;50.960;0.314;2024-03-22T00:46:17;26;26;
64627;PMS5003;68467;50.960;0.314;2024-03-22T00:48:44;22;21;
64627;PMS5003;68467;50.960;0.314;2024-03-22T00:51:12;26;25;
64627;PMS5003;68467;50.960;0.314;2024-03-22T00:53:39;25;24;
64627;PMS5003;68467;50.960;0.314;2024-03-22T00:56:07;25;24;
64627;PMS5003;68467;50.960;0.314;2024-03-22T00:58:35;21;20;
64627;PMS5003;68467;50.960;0.314;2024-03-22T01:01:02;25;23;
64627;PMS5003;68467;50.960;0.314;2024-03-22T01:03:31;28;23;
64627;PMS5003;68467;50.960;0.314;2024-03-22T01:05:58;30;29;
64627;PMS5003;68467;50.960;0.314;2024-03-22T01:08:26;26;24;
64627;PMS5003;68467;50.960;0.314;2024-03-22T01:10:53;23;22;
64627;PMS5003;68467;50.960;0.314;2024-03-22T01:13:22;25;22;
64627;PMS5003;68467;50.960;0.314;2024-03-22T01:15:50;27;24;
64627;PMS5003;68467;50.960;0.314;2024-03-22T01:18:17;20;20;
64627;PMS5003;68467;50.960;0.314;2024-03-22T01:20:45;24;22;
64627;PMS5003;68467;50.960;0.314;2024-03-22T01:23:12;24;23;
64627;PMS5003;68467;50.960;0.314;2024-03-22T01:25:39;24;22;
64627;PMS5003;68467;50.960;0.314;2024-03-22T01:28:07;22;22;
64627;PMS5003;68467;50.960;0.314;2024-03-22T01:30:34;21;21;
64627;PMS5003;68467;50.960;0.314;2024-03-22T01:33:01;22;21;
64627;PMS5003;68467;50.960;0.314;2024-03-22T01:35:28;24;23;
64627;PMS5003;68467;50.960;0.314;2024-03-22T01:37:55;25;25;
64627;PMS5003;68467;50.960;0.314;2024-03-22T01:40:22;22;22;
64627;PMS5003;68467;50.960;0.314;2024-03-22T01:42:52;23;21;
64627;PMS5003;68467;50.960;0.314;2024-03-22T01:45:20;25;23;
64627;PMS5003;68467;50.960;0.314;2024-03-22T01:47:49;24;24;
64627;PMS5003;68467;50.960;0.314;2024-03-22T01:50:16;26;24;
64627;PMS5003;68467;50.960;0.314;2024-03-22T01:52:45;26;23;
64627;PMS5003;68467;50.960;0.314;2024-03-22T01:55:13;27;27;
64627;PMS5003;68467;50.960;0.314;2024-03-22T01:57:40;22;21;
64627;PMS5003;68467;50.960;0.314;2024-03-22T02:00:09;24;24;
64627;PMS5003;68467;50.960;0.314;2024-03-22T02:02:37;23;22;
64627;PMS5003;68467;50.960;0.314;2024-03-22T02:05:12;24;24;
64627;PMS5003;68467;50.960;0.314;2024-03-22T02:07:39;22;20;
64627;PMS5003;68467;50.960;0.314;2024-03-22T02:10:08;24;22;
64627;PMS5003;68467;50.960;0.314;2024-03-22T02:12:37;22;21;
64627;PMS5003;68467;50.960;0.314;2024-03-22T02:15:04;21;20;
64627;PMS5003;68467;50.960;0.314;2024-03-22T02:17:32;22;21;
64627;PMS5003;68467;50.960;0.314;2024-03-22T02:20:00;25;23;
64627;PMS5003;68467;50.960;0.314;2024-03-22T02:22:28;21;19;
64627;PMS5003;68467;50.960;0.314;2024-03-22T02:24:54;19;19;
64627;PMS5003;68467;50.960;0.314;2024-03-22T02:27:22;21;20;
64627;PMS5003;68467;50.960;0.314;2024-03-22T02:29:51;23;20;
64627;PMS5003;68467;50.960;0.314;2024-03-22T02:32:19;17;16;
64627;PMS5003;68467;50.960;0.314;2024-03-22T02:34:46;20;19;
64627;PMS5003;68467;50.960;0.314;2024-03-22T02:37:14;19;18;
64627;PMS5003;68467;50.960;0.314;2024-03-22T02:39:41;19;18;
64627;PMS5003;68467;50.960;0.314;2024-03-22T02:42:08;18;18;
64627;PMS5003;68467;50.960;0.314;2024-03-22T02:44:35;19;16;
64627;PMS5003;68467;50.960;0.314;2024-03-22T02:47:02;18;18;
64627;PMS5003;68467;50.960;0.314;2024-03-22T02:49:29;14;14;
64627;PMS5003;68467;50.960;0.314;2024-03-22T02:51:56;19;18;
64627;PMS5003;68467;50.960;0.314;2024-03-22T02:54:23;18;17;
64627;PMS5003;68467;50.960;0.314;2024-03-22T02:56:51;17;15;
64627;PMS5003;68467;50.960;0.314;2024-03-22T02:59:17;16;15;
64627;PMS5003;68467;50.960;0.314;2024-03-22T03:01:45;17;16;
64627;PMS5003;68467;50.960;0.314;2024-03-22T03:04:12;17;15;
64627;PMS5003;68467;50.960;0.314;2024-03-22T03:06:39;18;16;
64627;PMS5003;68467;50.960;0.314;2024-03-22T03:09:07;15;13;
64627;PMS5003;68467;50.960;0.314;2024-03-22T03:11:34;16;15;
64627;PMS5003;68467;50.960;0.314;2024-03-22T03:14:01;14;14;
64627;PMS5003;68467;50.960;0.314;2024-03-22T03:16:28;14;13;
64627;PMS5003;68467;50.960;0.314;2024-03-22T03:18:55;14;14;
64627;PMS5003;68467;50.960;0.314;2024-03-22T03:21:22;19;19;
64627;PMS5003;68467;50.960;0.314;2024-03-22T03:23:49;18;17;
64627;PMS5003;68467;50.960;0.314;2024-03-22T03:26:16;15;15;
64627;PMS5003;68467;50.960;0.314;2024-03-22T03:28:43;16;16;
64627;PMS5003;68467;50.960;0.314;2024-03-22T03:31:10;15;14;
64627;PMS5003;68467;50.960;0.314;2024-03-22T03:33:38;16;16;
64627;PMS5003;68467;50.960;0.314;2024-03-22T03:36:05;17;16;
64627;PMS5003;68467;50.960;0.314;2024-03-22T03:38:33;20;19;
64627;PMS5003;68467;50.960;0.314;2024-03-22T03:41:00;14;14;
64627;PMS5003;68467;50.960;0.314;2024-03-22T03:43:28;17;17;
64627;PMS5003;68467;50.960;0.314;2024-03-22T03:45:55;13;12;
64627;PMS5003;68467;50.960;0.314;2024-03-22T03:48:22;14;14;
64627;PMS5003;68467;50.960;0.314;2024-03-22T03:50:52;15;14;
64627;PMS5003;68467;50.960;0.314;2024-03-22T03:53:19;17;14;
64627;PMS5003;68467;50.960;0.314;2024-03-22T03:55:47;13;12;
64627;PMS5003;68467;50.960;0.314;2024-03-22T03:58:14;12;12;
64627;PMS5003;68467;50.960;0.314;2024-03-22T04:00:41;13;13;
64627;PMS5003;68467;50.960;0.314;2024-03-22T04:03:08;11;11;
64627;PMS5003;68467;50.960;0.314;2024-03-22T04:05:36;10;9;
64627;PMS5003;68467;50.960;0.314;2024-03-22T04:08:03;13;12;
64627;PMS5003;68467;50.960;0.314;2024-03-22T04:10:31;8;8;
64627;PMS5003;68467;50.960;0.314;2024-03-22T04:12:58;10;10;
64627;PMS5003;68467;50.960;0.314;2024-03-22T04:15:26;12;12;
64627;PMS5003;68467;50.960;0.314;2024-03-22T04:17:56;9;8;
64627;PMS5003;68467;50.960;0.314;2024-03-22T04:20:23;8;8;
64627;PMS5003;68467;50.960;0.314;2024-03-22T04:22:50;9;9;
64627;PMS5003;68467;50.960;0.314;2024-03-22T04:25:18;9;8;
64627;PMS5003;68467;50.960;0.314;2024-03-22T04:27:45;11;11;
64627;PMS5003;68467;50.960;0.314;2024-03-22T04:30:12;10;10;
64627;PMS5003;68467;50.960;0.314;2024-03-22T04:32:39;9;7;
64627;PMS5003;68467;50.960;0.314;2024-03-22T04:35:06;7;7;
64627;PMS5003;68467;50.960;0.314;2024-03-22T04:37:34;8;7;
64627;PMS5003;68467;50.960;0.314;2024-03-22T04:40:01;8;7;
64627;PMS5003;68467;50.960;0.314;2024-03-22T04:42:28;8;8;
64627;PMS5003;68467;50.960;0.314;2024-03-22T04:44:56;7;7;
64627;PMS5003;68467;50.960;0.314;2024-03-22T04:47:23;7;7;
64627;PMS5003;68467;50.960;0.314;2024-03-22T04:49:51;7;6;
64627;PMS5003;68467;50.960;0.314;2024-03-22T04:52:18;7;7;
64627;PMS5003;68467;50.960;0.314;2024-03-22T04:54:45;6;5;
64627;PMS5003;68467;50.960;0.314;2024-03-22T04:57:12;6;6;
64627;PMS5003;68467;50.960;0.314;2024-03-22T04:59:40;6;6;
64627;PMS5003;68467;50.960;0.314;2024-03-22T05:02:07;7;6;
64627;PMS5003;68467;50.960;0.314;2024-03-22T05:04:34;6;6;
64627;PMS5003;68467;50.960;0.314;2024-03-22T05:07:01;8;7;
64627;PMS5003;68467;50.960;0.314;2024-03-22T05:09:28;7;7;
64627;PMS5003;68467;50.960;0.314;2024-03-22T05:11:55;6;5;
64627;PMS5003;68467;50.960;0.314;2024-03-22T05:14:22;6;6;
64627;PMS5003;68467;50.960;0.314;2024-03-22T05:16:49;8;8;
64627;PMS5003;68467;50.960;0.314;2024-03-22T05:19:16;7;6;
64627;PMS5003;68467;50.960;0.314;2024-03-22T05:21:43;10;8;
64627;PMS5003;68467;50.960;0.314;2024-03-22T05:24:10;6;6;
64627;PMS5003;68467;50.960;0.314;2024-03-22T05:26:37;8;7;
64627;PMS5003;68467;50.960;0.314;2024-03-22T05:29:04;9;9;
64627;PMS5003;68467;50.960;0.314;2024-03-22T05:31:31;7;6;
64627;PMS5003;68467;50.960;0.314;2024-03-22T05:34:11;8;7;
64627;PMS5003;68467;50.960;0.314;2024-03-22T05:36:38;7;6;
64627;PMS5003;68467;50.960;0.314;2024-03-22T05:39:05;5;4;
64627;PMS5003;68467;50.960;0.314;2024-03-22T05:41:32;7;6;
64627;PMS5003;68467;50.960;0.314;2024-03-22T05:43:59;7;7;
64627;PMS5003;68467;50.960;0.314;2024-03-22T05:46:27;6;6;
64627;PMS5003;68467;50.960;0.314;2024-03-22T05:48:54;7;7;
64627;PMS5003;68467;50.960;0.314;2024-03-22T05:51:21;6;6;
64627;PMS5003;68467;50.960;0.314;2024-03-22T05:53:48;6;6;
64627;PMS5003;68467;50.960;0.314;2024-03-22T05:56:15;7;7;
64627;PMS5003;68467;50.960;0.314;2024-03-22T05:58:43;7;7;
64627;PMS5003;68467;50.960;0.314;2024-03-22T06:01:09;7;6;
64627;PMS5003;68467;50.960;0.314;2024-03-22T06:03:37;8;8;
64627;PMS5003;68467;50.960;0.314;2024-03-22T06:06:04;9;8;
64627;PMS5003;68467;50.960;0.314;2024-03-22T06:08:32;7;6;
64627;PMS5003;68467;50.960;0.314;2024-03-22T06:10:59;6;6;
64627;PMS5003;68467;50.960;0.314;2024-03-22T06:13:26;8;8;
64627;PMS5003;68467;50.960;0.314;2024-03-22T06:15:53;7;7;
64627;PMS5003;68467;50.960;0.314;2024-03-22T06:18:20;6;6;
64627;PMS5003;68467;50.960;0.314;2024-03-22T06:20:47;6;6;
64627;PMS5003;68467;50.960;0.314;2024-03-22T06:23:14;8;8;
64627;PMS5003;68467;50.960;0.314;2024-03-22T06:25:41;9;8;
64627;PMS5003;68467;50.960;0.314;2024-03-22T06:28:17;10;9;
64627;PMS5003;68467;50.960;0.314;2024-03-22T06:30:44;6;5;
64627;PMS5003;68467;50.960;0.314;2024-03-22T06:33:11;7;7;
64627;PMS5003;68467;50.960;0.314;2024-03-22T06:35:38;6;5;
64627;PMS5003;68467;50.960;0.314;2024-03-22T06:38:05;7;6;
64627;PMS5003;68467;50.960;0.314;2024-03-22T06:40:32;5;5;
64627;PMS5003;68467;50.960;0.314;2024-03-22T06:43:00;7;7;
64627;PMS5003;68467;50.960;0.314;2024-03-22T06:45:27;5;5;
64627;PMS5003;68467;50.960;0.314;2024-03-22T06:47:54;7;6;
64627;PMS5003;68467;50.960;0.314;2024-03-22T06:50:21;8;8;
64627;PMS5003;68467;50.960;0.314;2024-03-22T06:52:48;10;9;
64627;PMS5003;68467;50.960;0.314;2024-03-22T06:55:16;6;6;
64627;PMS5003;68467;50.960;0.314;2024-03-22T06:57:44;6;6;
64627;PMS5003;68467;50.960;0.314;2024-03-22T07:00:13;6;6;
64627;PMS5003;68467;50.960;0.314;2024-03-22T07:02:40;9;8;
64627;PMS5003;68467;50.960;0.314;2024-03-22T07:05:08;8;7;
64627;PMS5003;68467;50.960;0.314;2024-03-22T07:07:35;8;6;
64627;PMS5003;68467;50.960;0.314;2024-03-22T07:10:03;8;8;
64627;PMS5003;68467;50.960;0.314;2024-03-22T07:12:31;6;6;
64627;PMS5003;68467;50.960;0.314;2024-03-22T07:14:59;9;9;
64627;PMS5003;68467;50.960;0.314;2024-03-22T07:17:27;8;8;
64627;PMS5003;68467;50.960;0.314;2024-03-22T07:19:54;12;12;
64627;PMS5003;68467;50.960;0.314;2024-03-22T07:22:22;7;6;
64627;PMS5003;68467;50.960;0.314;2024-03-22T07:24:49;5;4;
64627;PMS5003;68467;50.960;0.314;2024-03-22T07:27:17;9;8;
64627;PMS5003;68467;50.960;0.314;2024-03-22T07:29:44;9;9;
64627;PMS5003;68467;50.960;0.314;2024-03-22T07:32:11;8;7;
64627;PMS5003;68467;50.960;0.314;2024-03-22T07:34:39;9;8;
64627;PMS5003;68467;50.960;0.314;2024-03-22T07:37:06;7;5;
64627;PMS5003;68467;50.960;0.314;2024-03-22T07:39:33;8;8;
64627;PMS5003;68467;50.960;0.314;2024-03-22T07:42:00;8;7;
64627;PMS5003;68467;50.960;0.314;2024-03-22T07:44:27;8;8;
64627;PMS5003;68467;50.960;0.314;2024-03-22T07:46:54;7;7;
64627;PMS5003;68467;50.960;0.314;2024-03-22T07:49:22;8;7;
64627;PMS5003;68467;50.960;0.314;2024-03-22T07:51:49;7;7;
64627;PMS5003;68467;50.960;0.314;2024-03-22T07:54:16;7;7;
64627;PMS5003;68467;50.960;0.314;2024-03-22T07:56:43;7;7;
64627;PMS5003;68467;50.960;0.314;2024-03-22T07:59:10;10;8;
64627;PMS5003;68467;50.960;0.314;2024-03-22T08:01:37;8;8;
64627;PMS5003;68467;50.960;0.314;2024-03-22T08:04:04;9;8;
64627;PMS5003;68467;50.960;0.314;2024-03-22T08:06:31;10;9;
64627;PMS5003;68467;50.960;0.314;2024-03-22T08:08:58;8;8;
64627;PMS5003;68467;50.960;0.314;2024-03-22T08:11:26;8;8;
64627;PMS5003;68467;50.960;0.314;2024-03-22T08:13:53;10;10;
64627;PMS5003;68467;50.960;0.314;2024-03-22T08:16:21;13;11;
64627;PMS5003;68467;50.960;0.314;2024-03-22T08:18:48;11;10;
64627;PMS5003;68467;50.960;0.314;2024-03-22T08:21:15;10;10;
64627;PMS5003;68467;50.960;0.314;2024-03-22T08:23:43;8;8;
64627;PMS5003;68467;50.960;0.314;2024-03-22T08:26:10;10;10;
64627;PMS5003;68467;50.960;0.314;2024-03-22T08:28:37;9;9;
64627;PMS5003;68467;50.960;0.314;2024-03-22T08:31:04;12;10;
64627;PMS5003;68467;50.960;0.314;2024-03-22T08:33:32;9;9;
64627;PMS5003;68467;50.960;0.314;2024-03-22T08:35:58;9;8;
64627;PMS5003;68467;50.960;0.314;2024-03-22T08:38:26;9;9;
64627;PMS5003;68467;50.960;0.314;2024-03-22T08:40:53;8;8;
64627;PMS5003;68467;50.960;0.314;2024-03-22T08:43:20;9;9;
64627;PMS5003;68467;50.960;0.314;2024-03-22T08:45:48;10;9;
64627;PMS5003;68467;50.960;0.314;2024-03-22T08:48:15;10;10;
64627;PMS5003;68467;50.960;0.314;2024-03-22T08:50:42;9;9;
64627;PMS5003;68467;50.960;0.314;2024-03-22T08:53:10;14;14;
64627;PMS5003;68467;50.960;0.314;2024-03-22T08:55:37;9;8;
64627;PMS5003;68467;50.960;0.314;2024-03-22T08:58:05;11;11;
64627;PMS5003;68467;50.960;0.314;2024-03-22T09:00:32;10;9;
64627;PMS5003;68467;50.960;0.314;2024-03-22T09:02:59;10;9;
64627;PMS5003;68467;50.960;0.314;2024-03-22T09:05:27;11;10;
64627;PMS5003;68467;50.960;0.314;2024-03-22T09:07:54;13;12;
64627;PMS5003;68467;50.960;0.314;2024-03-22T09:10:22;11;10;
64627;PMS5003;68467;50.960;0.314;2024-03-22T09:12:50;11;10;
64627;PMS5003;68467;50.960;0.314;2024-03-22T09:15:18;12;12;
64627;PMS5003;68467;50.960;0.314;2024-03-22T09:17:45;14;14;
64627;PMS5003;68467;50.960;0.314;2024-03-22T09:20:12;11;11;
64627;PMS5003;68467;50.960;0.314;2024-03-22T09:22:40;11;11;
64627;PMS5003;68467;50.960;0.314;2024-03-22T09:25:08;10;9;
64627;PMS5003;68467;50.960;0.314;2024-03-22T09:27:35;11;11;
64627;PMS5003;68467;50.960;0.314;2024-03-22T09:30:03;14;13;
64627;PMS5003;68467;50.960;0.314;2024-03-22T09:32:32;9;9;
64627;PMS5003;68467;50.960;0.314;2024-03-22T09:34:59;13;13;
64627;PMS5003;68467;50.960;0.314;2024-03-22T09:37:27;14;12;
64627;PMS5003;68467;50.960;0.314;2024-03-22T09:39:55;15;15;
64627;PMS5003;68467;50.960;0.314;2024-03-22T09:42:22;14;14;
64627;PMS5003;68467;50.960;0.314;2024-03-22T09:44:49;17;17;
64627;PMS5003;68467;50.960;0.314;2024-03-22T09:47:17;13;13;
64627;PMS5003;68467;50.960;0.314;2024-03-22T09:49:44;16;15;
64627;PMS5003;68467;50.960;0.314;2024-03-22T09:52:13;14;14;
64627;PMS5003;68467;50.960;0.314;2024-03-22T09:54:41;18;17;
64627;PMS5003;68467;50.960;0.314;2024-03-22T09:57:09;15;15;
64627;PMS5003;68467;50.960;0.314;2024-03-22T09:59:40;16;15;
64627;PMS5003;68467;50.960;0.314;2024-03-22T10:02:08;14;14;
64627;PMS5003;68467;50.960;0.314;2024-03-22T10:04:37;18;18;
64627;PMS5003;68467;50.960;0.314;2024-03-22T10:07:03;18;17;
64627;PMS5003;68467;50.960;0.314;2024-03-22T10:09:30;17;17;
64627;PMS5003;68467;50.960;0.314;2024-03-22T10:11:58;19;18;
64627;PMS5003;68467;50.960;0.314;2024-03-22T10:14:25;16;16;
64627;PMS5003;68467;50.960;0.314;2024-03-22T10:16:52;15;14;
64627;PMS5003;68467;50.960;0.314;2024-03-22T10:19:20;16;16;
64627;PMS5003;68467;50.960;0.314;2024-03-22T10:21:47;16;16;
64627;PMS5003;68467;50.960;0.314;2024-03-22T10:24:25;14;14;
64627;PMS5003;68467;50.960;0.314;2024-03-22T10:26:53;15;15;
64627;PMS5003;68467;50.960;0.314;2024-03-22T10:29:20;18;17;
64627;PMS5003;68467;50.960;0.314;2024-03-22T10:31:49;13;13;
64627;PMS5003;68467;50.960;0.314;2024-03-22T10:34:18;18;16;
64627;PMS5003;68467;50.960;0.314;2024-03-22T10:36:46;19;19;
64627;PMS5003;68467;50.960;0.314;2024-03-22T10:39:16;22;20;
64627;PMS5003;68467;50.960;0.314;2024-03-22T10:41:44;13;13;
64627;PMS5003;68467;50.960;0.314;2024-03-22T10:44:13;13;13;
64627;PMS5003;68467;50.960;0.314;2024-03-22T10:46:43;14;13;
64627;PMS5003;68467;50.960;0.314;2024-03-22T10:49:13;15;15;
64627;PMS5003;68467;50.960;0.314;2024-03-22T10:51:43;21;19;
64627;PMS5003;68467;50.960;0.314;2024-03-22T10:54:13;14;13;
64627;PMS5003;68467;50.960;0.314;2024-03-22T10:56:46;17;14;
64627;PMS5003;68467;50.960;0.314;2024-03-22T10:59:14;13;12;
64627;PMS5003;68467;50.960;0.314;2024-03-22T11:01:46;15;15;
64627;PMS5003;68467;50.960;0.314;2024-03-22T11:04:15;18;16;
64627;PMS5003;68467;50.960;0.314;2024-03-22T11:06:47;20;19;
64627;PMS5003;68467;50.960;0.314;2024-03-22T11:09:20;20;20;
64627;PMS5003;68467;50.960;0.314;2024-03-22T11:11:48;16;16;
64627;PMS5003;68467;50.960;0.314;2024-03-22T11:14:18;20;20;
64627;PMS5003;68467;50.960;0.314;2024-03-22T11:16:45;18;18;
64627;PMS5003;68467;50.960;0.314;2024-03-22T11:19:12;15;15;
64627;PMS5003;68467;50.960;0.314;2024-03-22T11:21:39;22;20;
64627;PMS5003;68467;50.960;0.314;2024-03-22T11:24:07;19;18;
64627;PMS5003;68467;50.960;0.314;2024-03-22T11:26:35;17;17;
64627;PMS5003;68467;50.960;0.314;2024-03-22T11:29:02;17;17;
64627;PMS5003;68467;50.960;0.314;2024-03-22T11:31:30;18;17;
64627;PMS5003;68467;50.960;0.314;2024-03-22T11:33:58;20;20;
64627;PMS5003;68467;50.960;0.314;2024-03-22T11:36:26;18;18;
64627;PMS5003;68467;50.960;0.314;2024-03-22T11:38:53;17;16;
64627;PMS5003;68467;50.960;0.314;2024-03-22T11:41:22;21;20;
64627;PMS5003;68467;50.960;0.314;2024-03-22T11:43:53;17;16;
64627;PMS5003;68467;50.960;0.314;2024-03-22T11:46:21;17;17;
64627;PMS5003;68467;50.960;0.314;2024-03-22T11:48:50;16;16;
64627;PMS5003;68467;50.960;0.314;2024-03-22T11:51:18;16;16;
64627;PMS5003;68467;50.960;0.314;2024-03-22T11:53:49;15;15;
64627;PMS5003;68467;50.960;0.314;2024-03-22T11:56:17;15;15;
64627;PMS5003;68467;50.960;0.314;2024-03-22T11:58:46;15;15;
64627;PMS5003;68467;50.960;0.314;2024-03-22T12:01:13;13;12;
64627;PMS5003;68467;50.960;0.314;2024-03-22T12:03:43;13;13;
64627;PMS5003;68467;50.960;0.314;2024-03-22T12:06:10;20;16;
64627;PMS5003;68467;50.960;0.314;2024-03-22T12:08:37;17;15;
64627;PMS5003;68467;50.960;0.314;2024-03-22T12:11:04;14;13;
64627;PMS5003;68467;50.960;0.314;2024-03-22T12:13:33;15;15;
64627;PMS5003;68467;50.960;0.314;2024-03-22T12:16:00;15;15;
64627;PMS5003;68467;50.960;0.314;2024-03-22T12:18:27;16;15;
64627;PMS5003;68467;50.960;0.314;2024-03-22T12:20:54;13;12;
64627;PMS5003;68467;50.960;0.314;2024-03-22T12:23:21;15;13;
64627;PMS5003;68467;50.960;0.314;2024-03-22T12:25:50;13;12;
64627;PMS5003;68467;50.960;0.314;2024-03-22T12:28:17;14;14;
64627;PMS5003;68467;50.960;0.314;2024-03-22T12:30:44;13;13;
64627;PMS5003;68467;50.960;0.314;2024-03-22T12:33:11;14;13;
64627;PMS5003;68467;50.960;0.314;2024-03-22T12:35:39;18;18;
64627;PMS5003;68467;50.960;0.314;2024-03-22T12:38:07;21;18;
64627;PMS5003;68467;50.960;0.314;2024-03-22T12:40:34;16;16;
64627;PMS5003;68467;50.960;0.314;2024-03-22T12:43:01;14;12;
64627;PMS5003;68467;50.960;0.314;2024-03-22T12:45:28;14;14;
64627;PMS5003;68467;50.960;0.314;2024-03-22T12:47:55;15;14;
64627;PMS5003;68467;50.960;0.314;2024-03-22T12:50:22;16;16;
64627;PMS5003;68467;50.960;0.314;2024-03-22T12:52:50;16;15;
64627;PMS5003;68467;50.960;0.314;2024-03-22T12:55:17;16;15;
64627;PMS5003;68467;50.960;0.314;2024-03-22T12:57:44;17;16;
64627;PMS5003;68467;50.960;0.314;2024-03-22T13:00:12;13;13;
64627;PMS5003;68467;50.960;0.314;2024-03-22T13:02:40;14;14;
64627;PMS5003;68467;50.960;0.314;2024-03-22T13:05:08;17;16;
64627;PMS5003;68467;50.960;0.314;2024-03-22T13:07:35;12;12;
64627;PMS5003;68467;50.960;0.314;2024-03-22T13:10:03;14;14;
64627;PMS5003;68467;50.960;0.314;2024-03-22T13:12:31;16;15;
64627;PMS5003;68467;50.960;0.314;2024-03-22T13:14:59;15;13;
64627;PMS5003;68467;50.960;0.314;2024-03-22T13:17:26;16;15;
64627;PMS5003;68467;50.960;0.314;2024-03-22T13:19:53;14;14;
64627;PMS5003;68467;50.960;0.314;2024-03-22T13:22:20;16;16;
64627;PMS5003;68467;50.960;0.314;2024-03-22T13:24:48;20;20;
64627;PMS5003;68467;50.960;0.314;2024-03-22T13:27:16;20;19;
64627;PMS5003;68467;50.960;0.314;2024-03-22T13:29:44;14;13;
64627;PMS5003;68467;50.960;0.314;2024-03-22T13:32:12;10;10;
64627;PMS5003;68467;50.960;0.314;2024-03-22T13:34:39;8;7;
64627;PMS5003;68467;50.960;0.314;2024-03-22T13:37:06;7;7;
64627;PMS5003;68467;50.960;0.314;2024-03-22T13:39:33;8;8;
64627;PMS5003;68467;50.960;0.314;2024-03-22T13:42:00;10;10;
64627;PMS5003;68467;50.960;0.314;2024-03-22T13:44:29;8;8;
64627;PMS5003;68467;50.960;0.314;2024-03-22T13:46:59;7;7;
64627;PMS5003;68467;50.960;0.314;2024-03-22T13:49:26;7;7;
64627;PMS5003;68467;50.960;0.314;2024-03-22T13:51:53;6;6;
64627;PMS5003;68467;50.960;0.314;2024-03-22T13:54:20;7;7;
64627;PMS5003;68467;50.960;0.314;2024-03-22T13:56:47;7;7;
64627;PMS5003;68467;50.960;0.314;2024-03-22T13:59:14;10;10;
64627;PMS5003;68467;50.960;0.314;2024-03-22T14:01:41;10;9;
64627;PMS5003;68467;50.960;0.314;2024-03-22T14:04:09;9;8;
64627;PMS5003;68467;50.960;0.314;2024-03-22T14:06:37;11;10;
64627;PMS5003;68467;50.960;0.314;2024-03-22T14:09:05;16;15;
64627;PMS5003;68467;50.960;0.314;2024-03-22T14:11:32;13;12;
64627;PMS5003;68467;50.960;0.314;2024-03-22T14:13:59;16;15;
64627;PMS5003;68467;50.960;0.314;2024-03-22T14:16:26;18;17;
64627;PMS5003;68467;50.960;0.314;2024-03-22T14:18:53;8;7;
64627;PMS5003;68467;50.960;0.314;2024-03-22T14:21:21;5;4;
64627;PMS5003;68467;50.960;0.314;2024-03-22T14:23:49;6;6;
64627;PMS5003;68467;50.960;0.314;2024-03-22T14:26:16;3;3;
64627;PMS5003;68467;50.960;0.314;2024-03-22T14:28:44;4;4;
64627;PMS5003;68467;50.960;0.314;2024-03-22T14:31:13;4;4;
64627;PMS5003;68467;50.960;0.314;2024-03-22T14:33:40;5;4;
64627;PMS5003;68467;50.960;0.314;2024-03-22T14:36:08;6;6;
64627;PMS5003;68467;50.960;0.314;2024-03-22T14:38:35;3;2;
64627;PMS5003;68467;50.960;0.314;2024-03-22T14:41:03;3;3;
64627;PMS5003;68467;50.960;0.314;2024-03-22T14:43:30;3;3;
64627;PMS5003;68467;50.960;0.314;2024-03-22T14:45:57;2;2;
64627;PMS5003;68467;50.960;0.314;2024-03-22T14:48:24;3;3;
64627;PMS5003;68467;50.960;0.314;2024-03-22T14:50:51;3;3;
64627;PMS5003;68467;50.960;0.314;2024-03-22T14:53:18;2;2;
64627;PMS5003;68467;50.960;0.314;2024-03-22T14:55:51;4;3;
64627;PMS5003;68467;50.960;0.314;2024-03-22T14:58:19;5;5;
64627;PMS5003;68467;50.960;0.314;2024-03-22T15:00:53;4;4;
64627;PMS5003;68467;50.960;0.314;2024-03-22T15:03:20;3;3;
64627;PMS5003;68467;50.960;0.314;2024-03-22T15:05:49;3;2;
64627;PMS5003;68467;50.960;0.314;2024-03-22T15:08:17;4;4;
64627;PMS5003;68467;50.960;0.314;2024-03-22T15:10:44;5;5;
64627;PMS5003;68467;50.960;0.314;2024-03-22T15:13:11;5;4;
64627;PMS5003;68467;50.960;0.314;2024-03-22T15:15:42;5;5;
64627;PMS5003;68467;50.960;0.314;2024-03-22T15:18:17;6;6;
64627;PMS5003;68467;50.960;0.314;2024-03-22T15:20:44;9;9;
64627;PMS5003;68467;50.960;0.314;2024-03-22T15:23:12;10;10;
64627;PMS5003;68467;50.960;0.314;2024-03-22T15:25:40;8;6;
64627;PMS5003;68467;50.960;0.314;2024-03-22T15:28:08;9;9;
64627;PMS5003;68467;50.960;0.314;2024-03-22T15:30:35;8;8;
64627;PMS5003;68467;50.960;0.314;2024-03-22T15:33:02;11;11;
64627;PMS5003;68467;50.960;0.314;2024-03-22T15:35:30;10;10;
64627;PMS5003;68467;50.960;0.314;2024-03-22T15:37:58;9;9;
64627;PMS5003;68467;50.960;0.314;2024-03-22T15:40:25;7;6;
64627;PMS5003;68467;50.960;0.314;2024-03-22T15:42:52;6;6;
64627;PMS5003;68467;50.960;0.314;2024-03-22T15:45:19;10;9;
64627;PMS5003;68467;50.960;0.314;2024-03-22T15:47:46;13;13;
64627;PMS5003;68467;50.960;0.314;2024-03-22T15:50:13;100;99;
64627;PMS5003;68467;50.960;0.314;2024-03-22T15:52:40;10;10;
64627;PMS5003;68467;50.960;0.314;2024-03-22T15:55:08;11;11;
64627;PMS5003;68467;50.960;0.314;2024-03-22T15:57:35;22;20;
64627;PMS5003;68467;50.960;0.314;2024-03-22T16:00:03;29;29;
64627;PMS5003;68467;50.960;0.314;2024-03-22T16:02:32;31;27;
64627;PMS5003;68467;50.960;0.314;2024-03-22T16:04:59;47;42;
64627;PMS5003;68467;50.960;0.314;2024-03-22T16:07:26;15;14;
64627;PMS5003;68467;50.960;0.314;2024-03-22T16:09:53;58;56;
64627;PMS5003;68467;50.960;0.314;2024-03-22T16:12:20;43;41;
64627;PMS5003;68467;50.960;0.314;2024-03-22T16:14:47;22;21;
64627;PMS5003;68467;50.960;0.314;2024-03-22T16:17:14;24;24;
64627;PMS5003;68467;50.960;0.314;2024-03-22T16:19:41;24;23;
64627;PMS5003;68467;50.960;0.314;2024-03-22T16:22:08;25;25;
64627;PMS5003;68467;50.960;0.314;2024-03-22T16:24:35;26;23;
64627;PMS5003;68467;50.960;0.314;2024-03-22T16:27:02;22;21;
64627;PMS5003;68467;50.960;0.314;2024-03-22T16:29:30;24;22;
64627;PMS5003;68467;50.960;0.314;2024-03-22T16:31:56;26;26;